Time;durP1;ratioP1;P1;durP2;ratioP2;P2;SDS_P1;SDS_P2;PMS_P1;PMS_P2;Temp;Humidity;BMP_temperature;BMP_pressure;BME280_temperature;BME280_humidity;BME280_pressure;Samples;Min_cycle;Max_cycle;Signal;HPM_P1;HPM_P2
2022/05/19 00:01:02;;;;;;;2.47;2.30;;;16.70;54.20;;;;;;602256;236;26545;-69
2022/05/19 00:03:29;;;;;;;2.92;2.20;;;16.70;54.10;;;;;;602156;237;26826;-69
2022/05/19 00:05:58;;;;;;;2.20;2.10;;;16.70;54.00;;;;;;607805;236;26609;-70
2022/05/19 00:08:23;;;;;;;2.95;2.35;;;16.60;54.10;;;;;;603576;230;26543;-70
2022/05/19 00:10:51;;;;;;;2.40;2.30;;;16.60;54.80;;;;;;608747;231;26592;-70
2022/05/19 00:13:19;;;;;;;2.47;2.28;;;16.60;54.50;;;;;;603096;237;26608;-70
2022/05/19 00:15:47;;;;;;;4.90;2.28;;;16.60;54.40;;;;;;602953;238;26586;-70
2022/05/19 00:18:14;;;;;;;2.72;2.00;;;16.60;54.40;;;;;;604163;237;26597;-70
2022/05/19 00:20:42;;;;;;;2.35;2.25;;;16.50;55.00;;;;;;608980;236;26575;-69
2022/05/19 00:23:10;;;;;;;2.75;2.53;;;16.40;55.10;;;;;;603475;237;26865;-69
2022/05/19 00:25:37;;;;;;;2.97;2.25;;;16.40;55.10;;;;;;592118;242;26605;-69
2022/05/19 00:28:05;;;;;;;2.87;2.37;;;16.40;54.80;;;;;;585778;245;26939;-69
2022/05/19 00:30:31;;;;;;;2.65;2.45;;;16.40;55.60;;;;;;591146;240;26610;-69
2022/05/19 00:32:59;;;;;;;2.30;2.10;;;16.30;55.20;;;;;;592607;240;26860;-69
2022/05/19 00:35:26;;;;;;;3.00;2.08;;;16.30;55.00;;;;;;606048;236;26654;-68
2022/05/19 00:37:53;;;;;;;2.37;2.20;;;16.30;55.20;;;;;;603473;237;26573;-69
2022/05/19 00:40:20;;;;;;;2.45;2.35;;;16.30;55.40;;;;;;602115;235;26887;-69
2022/05/19 00:42:48;;;;;;;2.30;2.20;;;16.20;55.80;;;;;;610619;234;26650;-70
2022/05/19 00:45:15;;;;;;;2.25;2.05;;;16.30;55.60;;;;;;603364;237;26840;-69
2022/05/19 00:47:47;;;;;;;2.20;2.10;;;16.20;55.50;;;;;;603211;237;26582;-69
2022/05/19 00:50:20;;;;;;;2.30;2.20;;;16.20;55.90;;;;;;604235;238;26585;-69
2022/05/19 00:52:47;;;;;;;2.15;2.00;;;16.10;55.80;;;;;;612349;233;26914;-69
2022/05/19 00:55:15;;;;;;;3.35;2.28;;;16.10;55.60;;;;;;604936;235;26602;-69
2022/05/19 00:57:42;;;;;;;2.10;2.00;;;16.10;56.20;;;;;;604284;237;26827;-69
2022/05/19 01:00:10;;;;;;;2.67;2.42;;;16.10;56.00;;;;;;609179;235;26619;-69
2022/05/19 01:02:39;;;;;;;2.53;2.40;;;16.10;56.00;;;;;;609428;235;26590;-69
2022/05/19 01:05:09;;;;;;;2.47;2.28;;;16.00;55.90;;;;;;602942;237;26589;-69
2022/05/19 01:07:51;;;;;;;2.03;1.92;;;16.10;56.00;;;;;;603390;234;26638;-69
2022/05/19 01:10:19;;;;;;;2.37;2.17;;;16.00;56.20;;;;;;602027;235;26592;-69
2022/05/19 01:12:46;;;;;;;2.37;2.17;;;16.00;56.90;;;;;;609035;235;26805;-70
2022/05/19 01:15:13;;;;;;;2.40;2.20;;;16.00;56.50;;;;;;605851;235;26580;-69
2022/05/19 01:17:40;;;;;;;2.42;2.22;;;15.90;56.70;;;;;;606599;234;27300;-69
2022/05/19 01:20:09;;;;;;;2.55;2.33;;;15.90;56.80;;;;;;608049;236;26623;-69
2022/05/19 01:22:37;;;;;;;2.05;1.95;;;15.90;57.10;;;;;;604768;236;26602;-69
2022/05/19 01:25:10;;;;;;;2.20;2.00;;;15.80;57.10;;;;;;603393;238;26588;-70
2022/05/19 01:27:37;;;;;;;2.20;2.00;;;15.80;57.00;;;;;;601785;236;26848;-70
2022/05/19 01:30:05;;;;;;;2.22;2.10;;;15.80;56.80;;;;;;603915;236;26570;-70
2022/05/19 01:32:32;;;;;;;2.15;2.03;;;15.70;57.10;;;;;;604206;237;26575;-70
2022/05/19 01:35:00;;;;;;;2.37;2.28;;;15.70;57.20;;;;;;602392;237;26898;-70
2022/05/19 01:37:27;;;;;;;2.25;1.90;;;15.70;57.10;;;;;;603159;237;26602;-70
2022/05/19 01:39:54;;;;;;;2.17;2.08;;;15.70;57.00;;;;;;608649;235;26883;-70
2022/05/19 01:42:29;;;;;;;2.30;2.10;;;15.70;57.10;;;;;;605754;235;26554;-70
2022/05/19 01:44:58;;;;;;;2.33;2.22;;;15.70;57.40;;;;;;603952;238;26546;-69
2022/05/19 01:47:32;;;;;;;2.17;2.08;;;15.60;57.60;;;;;;606772;235;26835;-70
2022/05/19 01:50:13;;;;;;;2.30;2.20;;;15.60;57.40;;;;;;606951;235;26777;-70
2022/05/19 01:52:40;;;;;;;2.17;1.98;;;15.60;57.70;;;;;;608758;236;26605;-70
2022/05/19 01:55:10;;;;;;;2.28;2.17;;;15.50;57.80;;;;;;601334;239;27200;-70
2022/05/19 01:57:38;;;;;;;2.08;1.98;;;15.50;57.60;;;;;;601377;236;26625;-70
2022/05/19 02:00:10;;;;;;;2.20;2.10;;;15.40;57.90;;;;;;603681;238;26658;-70
2022/05/19 02:02:40;;;;;;;2.10;2.00;;;15.40;57.80;;;;;;602666;236;26649;-70
2022/05/19 02:05:11;;;;;;;1.90;1.80;;;15.40;57.80;;;;;;606869;236;26593;-70
2022/05/19 02:07:39;;;;;;;1.95;1.85;;;15.40;57.90;;;;;;602783;238;26641;-70
2022/05/19 02:10:06;;;;;;;2.12;2.03;;;15.40;57.50;;;;;;608584;235;26607;-70
2022/05/19 02:12:33;;;;;;;2.17;2.08;;;15.40;57.70;;;;;;603002;235;26618;-70
2022/05/19 02:15:03;;;;;;;2.15;1.98;;;15.30;57.40;;;;;;604282;237;27239;-70
2022/05/19 02:17:28;;;;;;;1.98;1.87;;;15.40;57.50;;;;;;607081;235;26631;-70
2022/05/19 02:19:56;;;;;;;2.30;2.10;;;15.30;57.80;;;;;;605685;235;26570;-70
2022/05/19 02:22:23;;;;;;;2.28;2.10;;;15.30;57.30;;;;;;604534;234;26864;-70
2022/05/19 02:24:51;;;;;;;2.00;1.90;;;15.30;57.80;;;;;;604075;238;26586;-70
2022/05/19 02:27:33;;;;;;;2.22;2.10;;;15.30;57.80;;;;;;603030;232;26582;-70
2022/05/19 02:30:01;;;;;;;3.08;2.20;;;15.30;57.90;;;;;;602688;238;27295;-70
2022/05/19 02:32:28;;;;;;;1.73;1.62;;;15.20;57.70;;;;;;604225;238;26543;-70
2022/05/19 02:34:56;;;;;;;2.25;2.10;;;15.10;58.20;;;;;;604076;237;26590;-70
2022/05/19 02:37:24;;;;;;;1.90;1.80;;;15.10;58.20;;;;;;603133;237;26594;-70
2022/05/19 02:39:52;;;;;;;2.30;2.10;;;15.10;58.10;;;;;;602922;236;26623;-70
2022/05/19 02:42:19;;;;;;;1.95;1.85;;;15.00;58.00;;;;;;608461;236;26655;-70
2022/05/19 02:44:46;;;;;;;2.00;1.90;;;15.10;58.30;;;;;;602101;238;26617;-70
2022/05/19 02:47:13;;;;;;;2.00;1.90;;;15.10;58.80;;;;;;603398;233;27293;-70
2022/05/19 02:49:40;;;;;;;2.05;1.85;;;15.10;58.00;;;;;;603235;238;26554;-70
2022/05/19 02:52:08;;;;;;;1.87;1.77;;;15.10;58.10;;;;;;602206;238;26897;-70
2022/05/19 02:54:35;;;;;;;1.77;1.62;;;15.00;57.90;;;;;;603990;238;26594;-70
2022/05/19 02:57:02;;;;;;;2.00;1.90;;;15.10;58.10;;;;;;604681;235;26873;-70
2022/05/19 02:59:30;;;;;;;1.98;1.87;;;15.00;58.30;;;;;;606946;235;26641;-70
2022/05/19 03:01:56;;;;;;;2.00;1.90;;;15.00;58.10;;;;;;603461;238;26821;-70
2022/05/19 03:04:24;;;;;;;1.80;1.70;;;15.00;58.80;;;;;;601939;237;26656;-70
2022/05/19 03:06:52;;;;;;;2.47;2.28;;;15.00;58.50;;;;;;605707;236;27349;-70
2022/05/19 03:09:18;;;;;;;1.87;1.80;;;15.00;58.70;;;;;;610819;235;26579;-70
2022/05/19 03:11:45;;;;;;;2.05;1.95;;;14.90;58.20;;;;;;607532;234;26887;-70
2022/05/19 03:14:13;;;;;;;1.80;1.70;;;14.90;58.40;;;;;;608524;236;26685;-70
2022/05/19 03:16:41;;;;;;;1.60;1.60;;;14.90;58.70;;;;;;604386;236;26553;-70
2022/05/19 03:19:09;;;;;;;1.77;1.67;;;14.90;58.80;;;;;;603936;237;26589;-70
2022/05/19 03:21:37;;;;;;;2.03;1.92;;;14.90;58.80;;;;;;603933;236;26616;-70
2022/05/19 03:24:04;;;;;;;2.10;1.90;;;14.90;58.70;;;;;;608425;235;26636;-70
2022/05/19 03:26:32;;;;;;;1.90;1.80;;;14.90;58.50;;;;;;602870;235;26889;-70
2022/05/19 03:28:59;;;;;;;1.80;1.70;;;14.90;59.30;;;;;;602081;237;26597;-70
2022/05/19 03:31:27;;;;;;;2.03;1.90;;;14.90;58.60;;;;;;605975;236;26831;-70
2022/05/19 03:33:54;;;;;;;1.75;1.65;;;14.90;58.20;;;;;;606968;235;26649;-70
2022/05/19 03:36:21;;;;;;;1.80;1.70;;;14.90;58.40;;;;;;604927;236;26816;-69
2022/05/19 03:38:49;;;;;;;1.60;1.60;;;15.00;58.30;;;;;;608467;235;26634;-70
2022/05/19 03:41:17;;;;;;;2.03;1.92;;;15.00;58.70;;;;;;601777;237;26589;-70
2022/05/19 03:43:45;;;;;;;2.00;1.90;;;15.00;57.90;;;;;;603588;238;26602;-69
2022/05/19 03:46:13;;;;;;;2.85;1.90;;;15.00;58.40;;;;;;602470;238;26585;-70
2022/05/19 03:48:41;;;;;;;2.03;1.85;;;15.00;58.40;;;;;;604757;237;26669;-70
2022/05/19 03:51:09;;;;;;;2.12;2.00;;;15.00;58.00;;;;;;606663;236;26600;-70
2022/05/19 03:53:36;;;;;;;1.62;1.52;;;15.00;58.00;;;;;;609831;235;26651;-69
2022/05/19 03:56:05;;;;;;;3.17;1.60;;;15.10;57.80;;;;;;603851;235;26614;-70
2022/05/19 03:58:31;;;;;;;1.80;1.62;;;15.10;58.70;;;;;;604048;238;26598;-69
2022/05/19 04:00:59;;;;;;;2.10;1.90;;;15.10;58.30;;;;;;602400;238;26864;-69
2022/05/19 04:03:26;;;;;;;1.80;1.70;;;15.10;57.80;;;;;;603125;237;26663;-69
2022/05/19 04:05:53;;;;;;;1.87;1.77;;;15.10;57.60;;;;;;603475;238;26926;-69
2022/05/19 04:08:20;;;;;;;1.98;1.87;;;15.20;57.50;;;;;;604496;236;26575;-67
2022/05/19 04:10:48;;;;;;;3.65;1.73;;;15.20;58.60;;;;;;604153;236;26841;-67
2022/05/19 04:13:15;;;;;;;2.53;1.90;;;15.20;58.20;;;;;;604102;236;26657;-67
2022/05/19 04:15:42;;;;;;;2.47;1.87;;;15.20;58.70;;;;;;604717;235;26624;-67
2022/05/19 04:18:10;;;;;;;1.98;1.80;;;15.20;58.40;;;;;;607244;232;26636;-68
2022/05/19 04:20:38;;;;;;;1.77;1.73;;;15.20;57.90;;;;;;611654;235;26663;-68
2022/05/19 04:23:06;;;;;;;2.40;1.60;;;15.20;58.80;;;;;;605707;234;26614;-68
2022/05/19 04:25:33;;;;;;;1.60;1.50;;;15.20;58.80;;;;;;607738;236;26615;-68
2022/05/19 04:28:00;;;;;;;2.20;1.77;;;15.20;58.80;;;;;;601631;237;26660;-67
2022/05/19 04:30:28;;;;;;;1.80;1.70;;;15.30;58.70;;;;;;609994;234;26869;-67
2022/05/19 04:32:55;;;;;;;1.90;1.75;;;15.20;58.70;;;;;;606957;234;27189;-67
2022/05/19 04:35:22;;;;;;;1.50;1.50;;;15.30;57.70;;;;;;606430;235;26557;-68
2022/05/19 04:37:50;;;;;;;1.83;1.65;;;15.40;57.80;;;;;;611582;235;26832;-68
2022/05/19 04:40:17;;;;;;;1.87;1.77;;;15.50;58.60;;;;;;611561;234;26575;-65
2022/05/19 04:42:45;;;;;;;1.70;1.60;;;15.60;57.80;;;;;;604119;236;26633;-65
2022/05/19 04:45:13;;;;;;;1.77;1.70;;;15.60;57.50;;;;;;602400;237;26790;-65
2022/05/19 04:47:40;;;;;;;1.90;1.80;;;15.70;57.60;;;;;;604022;237;26584;-65
2022/05/19 04:50:08;;;;;;;1.70;1.60;;;15.70;57.70;;;;;;601724;238;26964;-65
2022/05/19 04:52:35;;;;;;;1.90;1.80;;;15.80;57.30;;;;;;603864;238;26836;-65
2022/05/19 04:55:02;;;;;;;1.85;1.75;;;15.90;57.30;;;;;;611229;235;26594;-65
2022/05/19 04:57:29;;;;;;;1.87;1.77;;;16.00;56.60;;;;;;601905;236;26984;-65
2022/05/19 04:59:56;;;;;;;1.95;1.85;;;16.10;57.50;;;;;;603138;238;26587;-65
2022/05/19 05:02:24;;;;;;;1.73;1.62;;;16.20;56.70;;;;;;602983;238;26974;-65
2022/05/19 05:04:52;;;;;;;1.50;1.40;;;16.50;56.40;;;;;;604054;237;26595;-65
2022/05/19 05:07:21;;;;;;;1.80;1.70;;;16.70;56.30;;;;;;602013;237;27234;-65
2022/05/19 05:09:48;;;;;;;1.45;1.35;;;16.70;56.30;;;;;;603451;237;26799;-65
2022/05/19 05:12:15;;;;;;;1.80;1.70;;;16.90;56.00;;;;;;603154;237;26581;-65
2022/05/19 05:14:42;;;;;;;3.28;1.80;;;17.00;55.60;;;;;;602351;234;27002;-65
2022/05/19 05:17:10;;;;;;;2.25;1.77;;;17.20;55.30;;;;;;601500;238;26642;-65
2022/05/19 05:19:37;;;;;;;1.80;1.70;;;17.30;55.50;;;;;;603876;236;27295;-65
2022/05/19 05:22:04;;;;;;;1.73;1.65;;;17.40;55.50;;;;;;611082;235;26579;-61
2022/05/19 05:24:31;;;;;;;1.90;1.65;;;17.50;55.30;;;;;;605205;235;26690;-61
2022/05/19 05:26:59;;;;;;;1.92;1.83;;;17.70;55.50;;;;;;608627;235;26641;-61
2022/05/19 05:29:27;;;;;;;1.87;1.77;;;17.90;56.00;;;;;;610128;235;26859;-61
2022/05/19 05:31:54;;;;;;;2.20;1.98;;;18.00;54.80;;;;;;601443;239;26628;-61
2022/05/19 05:34:22;;;;;;;2.53;1.80;;;18.20;54.40;;;;;;603308;236;26612;-61
2022/05/19 05:36:49;;;;;;;2.53;2.15;;;18.30;53.90;;;;;;607709;235;26671;-61
2022/05/19 05:39:17;;;;;;;2.22;1.87;;;18.50;54.00;;;;;;602997;236;26854;-61
2022/05/19 05:41:45;;;;;;;2.50;1.75;;;18.60;54.40;;;;;;610246;233;26844;-61
2022/05/19 05:44:12;;;;;;;2.08;1.98;;;18.60;54.50;;;;;;603736;237;26867;-61
2022/05/19 05:46:40;;;;;;;2.15;1.95;;;18.70;54.30;;;;;;603679;237;26605;-61
2022/05/19 05:49:06;;;;;;;2.20;2.10;;;18.80;53.60;;;;;;604639;237;27139;-61
2022/05/19 05:51:34;;;;;;;2.08;1.98;;;18.80;53.80;;;;;;609096;236;26590;-62
2022/05/19 05:54:01;;;;;;;1.83;1.52;;;18.90;54.50;;;;;;603038;238;26893;-61
2022/05/19 05:56:28;;;;;;;2.05;1.90;;;18.90;54.20;;;;;;603668;238;26644;-61
2022/05/19 05:58:55;;;;;;;1.98;1.80;;;18.90;53.50;;;;;;603964;237;26821;-61
2022/05/19 06:01:23;;;;;;;1.95;1.80;;;19.00;52.70;;;;;;602146;236;26557;-61
2022/05/19 06:03:51;;;;;;;2.50;2.03;;;19.00;54.00;;;;;;602497;237;26581;-61
2022/05/19 06:06:19;;;;;;;3.50;1.73;;;19.10;53.60;;;;;;603565;237;26578;-61
2022/05/19 06:08:47;;;;;;;1.87;1.77;;;19.20;53.10;;;;;;603686;238;26634;-61
2022/05/19 06:11:15;;;;;;;2.17;1.85;;;19.30;52.80;;;;;;602326;233;26604;-61
2022/05/19 06:13:42;;;;;;;2.20;2.00;;;19.30;52.80;;;;;;609569;235;26848;-61
2022/05/19 06:16:10;;;;;;;2.35;2.15;;;19.30;53.80;;;;;;606686;236;26611;-61
2022/05/19 06:18:37;;;;;;;2.08;1.98;;;19.50;53.00;;;;;;604996;236;26582;-60
2022/05/19 06:21:05;;;;;;;1.95;1.85;;;19.60;53.30;;;;;;607729;236;26834;-61
2022/05/19 06:23:32;;;;;;;2.42;1.95;;;19.70;52.60;;;;;;602344;235;26663;-61
2022/05/19 06:25:59;;;;;;;1.70;1.60;;;19.80;53.00;;;;;;604521;237;26884;-61
2022/05/19 06:28:26;;;;;;;2.42;1.92;;;19.70;52.30;;;;;;604489;238;26589;-62
2022/05/19 06:30:54;;;;;;;2.03;1.90;;;19.90;52.50;;;;;;608047;236;26831;-61
2022/05/19 06:33:22;;;;;;;1.92;1.83;;;20.00;52.00;;;;;;611597;234;26587;-61
2022/05/19 06:35:48;;;;;;;2.67;2.00;;;20.10;52.10;;;;;;601391;238;26864;-61
2022/05/19 06:38:15;;;;;;;1.92;1.83;;;20.10;52.10;;;;;;590519;242;26626;-61
2022/05/19 06:40:42;;;;;;;1.85;1.75;;;20.20;52.20;;;;;;592261;242;27333;-60
2022/05/19 06:43:10;;;;;;;2.00;1.80;;;20.30;52.10;;;;;;586156;245;26695;-61
2022/05/19 06:45:38;;;;;;;1.85;1.75;;;20.30;52.00;;;;;;603244;235;26623;-60
2022/05/19 06:48:06;;;;;;;1.90;1.80;;;20.40;51.90;;;;;;608684;235;26622;-61
2022/05/19 06:50:34;;;;;;;2.15;2.05;;;20.40;51.90;;;;;;601544;237;26634;-61
2022/05/19 06:53:03;;;;;;;1.80;1.70;;;20.60;51.90;;;;;;604905;237;27037;-61
2022/05/19 06:55:28;;;;;;;2.67;1.90;;;20.70;51.80;;;;;;603035;237;26612;-61
2022/05/19 06:57:56;;;;;;;1.92;1.83;;;20.80;51.80;;;;;;605431;237;26611;-61
2022/05/19 07:00:24;;;;;;;2.35;2.00;;;20.80;51.80;;;;;;603902;237;26778;-61
2022/05/19 07:02:53;;;;;;;1.48;1.45;;;20.90;52.00;;;;;;609176;233;26668;-61
2022/05/19 07:05:19;;;;;;;2.78;1.80;;;20.90;51.90;;;;;;606186;235;26646;-61
2022/05/19 07:07:48;;;;;;;2.00;1.90;;;21.00;52.10;;;;;;604449;237;26624;-61
2022/05/19 07:10:16;;;;;;;2.28;1.87;;;21.20;52.30;;;;;;602909;237;26569;-60
2022/05/19 07:12:44;;;;;;;2.50;1.70;;;21.20;52.20;;;;;;604851;235;26593;-60
2022/05/19 07:15:12;;;;;;;2.12;1.95;;;21.20;52.20;;;;;;605533;235;26596;-59
2022/05/19 07:17:40;;;;;;;2.72;2.00;;;21.40;51.60;;;;;;604260;235;26591;-60
2022/05/19 07:22:41;;;;;;;2.65;2.03;;;21.40;51.50;;;;;;602201;238;26586;-61
2022/05/19 07:25:10;;;;;;;2.47;2.08;;;21.40;51.50;;;;;;602185;239;26553;-61
2022/05/19 07:27:36;;;;;;;1.80;1.70;;;21.70;51.80;;;;;;608239;235;26632;-61
2022/05/19 07:30:05;;;;;;;1.67;1.58;;;21.80;51.50;;;;;;609878;236;26600;-62
2022/05/19 07:32:32;;;;;;;1.87;1.70;;;21.70;51.50;;;;;;609697;235;26573;-62
2022/05/19 07:34:59;;;;;;;1.80;1.70;;;21.90;51.40;;;;;;609509;235;26965;-62
2022/05/19 07:37:26;;;;;;;2.00;1.90;;;22.00;51.10;;;;;;601963;238;26637;-62
2022/05/19 07:39:54;;;;;;;2.25;1.90;;;22.00;51.20;;;;;;604648;236;27117;-62
2022/05/19 07:42:21;;;;;;;1.90;1.80;;;22.10;51.50;;;;;;603873;236;26630;-61
2022/05/19 07:44:48;;;;;;;2.40;2.20;;;22.20;51.90;;;;;;605495;235;26641;-61
2022/05/19 07:47:16;;;;;;;1.65;1.55;;;22.30;51.10;;;;;;604859;235;26649;-61
2022/05/19 07:49:44;;;;;;;2.10;2.00;;;22.40;51.00;;;;;;605257;232;26603;-62
2022/05/19 07:52:13;;;;;;;1.92;1.83;;;22.60;51.00;;;;;;603881;235;26645;-62
2022/05/19 07:54:40;;;;;;;1.90;1.80;;;22.60;51.40;;;;;;604634;235;26611;-61
2022/05/19 07:57:08;;;;;;;2.15;2.05;;;22.60;51.40;;;;;;602780;235;26586;-62
2022/05/19 07:59:35;;;;;;;2.30;2.12;;;22.50;51.30;;;;;;602161;234;26905;-61
2022/05/19 08:02:02;;;;;;;2.45;1.98;;;22.60;51.70;;;;;;604478;237;26579;-62
2022/05/19 08:04:30;;;;;;;1.98;1.87;;;22.70;51.40;;;;;;604053;234;26898;-63
2022/05/19 08:06:57;;;;;;;2.75;2.28;;;22.70;51.20;;;;;;602750;237;26591;-64
2022/05/19 08:11:57;;;;;;;2.20;2.00;;;22.80;51.30;;;;;;604064;234;26597;-64
2022/05/19 08:16:57;;;;;;;6.47;3.47;;;22.90;51.40;;;;;;606169;234;26595;-63
2022/05/19 08:19:24;;;;;;;2.37;2.17;;;22.90;51.50;;;;;;609184;236;26576;-63
2022/05/19 08:21:51;;;;;;;3.90;3.33;;;23.00;51.70;;;;;;602808;237;26590;-63
2022/05/19 08:24:19;;;;;;;4.20;2.78;;;23.10;51.50;;;;;;603407;238;27227;-63
2022/05/19 08:26:46;;;;;;;2.95;2.08;;;23.10;51.10;;;;;;604526;236;26598;-63
2022/05/19 08:29:14;;;;;;;2.60;2.40;;;23.20;51.10;;;;;;602219;237;26845;-63
2022/05/19 08:31:40;;;;;;;2.30;2.10;;;23.20;51.10;;;;;;601953;235;26586;-63
2022/05/19 08:34:08;;;;;;;2.87;2.28;;;23.30;51.20;;;;;;603013;237;27271;-64
2022/05/19 08:36:35;;;;;;;2.80;2.60;;;23.40;51.20;;;;;;607441;236;26620;-63
2022/05/19 08:39:02;;;;;;;3.90;2.33;;;23.40;51.40;;;;;;608167;236;27314;-67
2022/05/19 08:41:31;;;;;;;3.35;2.80;;;23.50;50.90;;;;;;605953;235;26588;-69
2022/05/19 08:43:58;;;;;;;1.70;1.60;;;23.50;50.90;;;;;;605871;235;26641;-69
2022/05/19 08:46:26;;;;;;;1.85;1.73;;;23.60;50.90;;;;;;603376;232;27268;-69
2022/05/19 08:48:54;;;;;;;1.70;1.60;;;23.70;51.20;;;;;;602905;235;27086;-65
2022/05/19 08:51:24;;;;;;;1.70;1.60;;;23.70;50.90;;;;;;605298;235;26607;-71
2022/05/19 08:53:51;;;;;;;1.48;1.45;;;23.70;50.70;;;;;;602953;237;26624;-67
2022/05/19 08:56:20;;;;;;;1.98;1.87;;;23.80;50.90;;;;;;601721;232;26836;-65
2022/05/19 08:59:03;;;;;;;2.45;2.25;;;23.80;50.90;;;;;;602520;235;26831;-64
2022/05/19 09:01:42;;;;;;;1.98;1.87;;;23.90;50.90;;;;;;605960;235;27269;-64
2022/05/19 09:04:30;;;;;;;1.77;1.67;;;23.90;50.80;;;;;;608431;236;26605;-64
2022/05/19 09:09:38;;;;;;;1.83;1.73;;;24.10;50.60;;;;;;604511;238;26583;-64
2022/05/19 09:12:06;;;;;;;1.95;1.85;;;24.20;50.60;;;;;;603986;238;26834;-64
2022/05/19 09:14:34;;;;;;;5.53;3.70;;;24.50;50.50;;;;;;604109;237;26577;-65
2022/05/19 09:17:03;;;;;;;1.50;1.48;;;24.60;50.60;;;;;;603274;235;26649;-65
2022/05/19 09:19:31;;;;;;;1.70;1.60;;;24.60;50.60;;;;;;602744;237;26572;-65
2022/05/19 09:22:11;;;;;;;2.05;1.85;;;24.90;49.80;;;;;;602359;237;26647;-65
2022/05/19 09:24:39;;;;;;;3.08;2.12;;;24.80;49.70;;;;;;603423;235;26877;-67
2022/05/19 09:27:06;;;;;;;2.20;2.10;;;25.00;49.50;;;;;;605082;237;26626;-64
2022/05/19 09:29:34;;;;;;;1.70;1.60;;;25.10;49.20;;;;;;605124;237;26912;-67
2022/05/19 09:32:02;;;;;;;6.57;3.50;;;25.30;49.00;;;;;;604490;232;26638;-68
2022/05/19 09:34:30;;;;;;;1.77;1.67;;;25.50;48.70;;;;;;601888;235;26833;-68
2022/05/19 09:37:06;;;;;;;1.65;1.55;;;25.60;48.50;;;;;;601808;239;26588;-66
2022/05/19 09:39:35;;;;;;;1.70;1.60;;;25.70;48.30;;;;;;601859;237;26627;-67
2022/05/19 09:42:00;;;;;;;1.58;1.58;;;25.80;48.10;;;;;;601660;238;26586;-69
2022/05/19 09:44:28;;;;;;;1.50;1.40;;;25.90;47.90;;;;;;605161;235;26892;-75
2022/05/19 09:46:56;;;;;;;1.50;1.40;;;26.00;47.80;;;;;;605346;235;26554;-66
2022/05/19 09:49:26;;;;;;;1.45;1.35;;;25.90;47.70;;;;;;605277;238;26590;-64
2022/05/19 09:51:53;;;;;;;1.73;1.62;;;26.00;47.80;;;;;;604970;237;26959;-66
2022/05/19 09:54:20;;;;;;;1.60;1.60;;;25.90;48.20;;;;;;604965;237;26578;-64
2022/05/19 09:56:48;;;;;;;1.65;1.55;;;25.90;47.70;;;;;;602219;236;26828;-64
2022/05/19 09:59:15;;;;;;;1.70;1.60;;;25.90;47.80;;;;;;602267;237;26617;-66
2022/05/19 10:01:42;;;;;;;4.20;3.00;;;25.90;47.80;;;;;;604926;238;26801;-67
2022/05/19 10:04:25;;;;;;;1.70;1.60;;;26.00;48.30;;;;;;608269;235;26579;-66
2022/05/19 10:06:54;;;;;;;1.60;1.50;;;26.20;48.80;;;;;;612562;235;26639;-66
2022/05/19 10:09:22;;;;;;;1.85;1.75;;;26.10;48.70;;;;;;607922;235;26643;-66
2022/05/19 10:11:50;;;;;;;1.58;1.48;;;26.20;48.00;;;;;;601437;237;26651;-65
2022/05/19 10:14:17;;;;;;;1.45;1.45;;;26.20;48.00;;;;;;601290;239;27007;-65
2022/05/19 10:16:53;;;;;;;4.20;3.50;;;26.30;48.10;;;;;;601384;239;26614;-65
2022/05/19 10:19:24;;;;;;;1.60;1.50;;;26.50;47.20;;;;;;601084;238;26661;-64
2022/05/19 10:21:57;;;;;;;2.05;1.95;;;26.40;47.10;;;;;;601084;239;26641;-65
2022/05/19 10:24:33;;;;;;;1.37;1.37;;;26.60;46.80;;;;;;601491;239;26651;-67
2022/05/19 10:32:16;;;;;;;1.70;1.70;;;27.00;46.00;;;;;;602384;239;26566;-65
2022/05/19 10:34:44;;;;;;;2.08;1.98;;;27.00;46.00;;;;;;601902;238;26887;-67
2022/05/19 10:37:15;;;;;;;1.42;1.33;;;27.10;45.80;;;;;;601593;239;26551;-66
2022/05/19 10:40:00;;;;;;;4.75;2.92;;;27.10;45.80;;;;;;601913;235;26577;-66
2022/05/19 10:42:31;;;;;;;1.70;1.60;;;27.20;46.00;;;;;;601376;239;26847;-67
2022/05/19 10:45:22;;;;;;;1.70;1.60;;;27.30;45.60;;;;;;601474;239;26598;-70
2022/05/19 10:48:19;;;;;;;1.58;1.48;;;27.30;45.10;;;;;;601927;235;26599;-66
2022/05/19 10:50:48;;;;;;;1.70;1.55;;;27.50;44.50;;;;;;593939;239;26659;-66
2022/05/19 10:53:36;;;;;;;1.65;1.55;;;27.50;44.60;;;;;;602776;234;26605;-63
2022/05/19 10:56:20;;;;;;;1.40;1.40;;;27.80;44.40;;;;;;603263;238;26600;-65
2022/05/19 10:59:09;;;;;;;1.50;1.50;;;27.70;44.40;;;;;;588767;238;26655;-64
2022/05/19 11:01:58;;;;;;;1.52;1.50;;;27.90;44.10;;;;;;591612;237;26656;-66
2022/05/19 11:04:33;;;;;;;1.67;1.67;;;28.10;44.00;;;;;;604844;235;26670;-64
2022/05/19 11:07:01;;;;;;;2.08;1.98;;;28.10;44.00;;;;;;605394;235;26594;-65
2022/05/19 11:09:41;;;;;;;2.25;2.15;;;28.00;43.70;;;;;;606233;236;26585;-66
2022/05/19 11:12:11;;;;;;;1.40;1.40;;;28.00;43.70;;;;;;602336;237;26632;-65
2022/05/19 11:14:47;;;;;;;3.08;2.08;;;28.20;43.30;;;;;;608351;236;26828;-64
2022/05/19 11:17:19;;;;;;;6.25;4.60;;;28.30;43.20;;;;;;610987;235;26883;-65
2022/05/19 11:19:46;;;;;;;4.50;3.55;;;28.40;42.50;;;;;;591587;242;26574;-67
2022/05/19 11:22:14;;;;;;;1.60;1.50;;;28.60;42.20;;;;;;596724;239;26651;-70
2022/05/19 11:27:23;;;;;;;1.45;1.35;;;29.20;41.70;;;;;;611130;234;26805;-73
2022/05/19 11:29:50;;;;;;;2.42;1.95;;;29.40;41.60;;;;;;606501;235;26638;-73
2022/05/19 11:32:33;;;;;;;2.00;1.90;;;29.80;41.70;;;;;;605048;235;27118;-71
2022/05/19 11:35:03;;;;;;;2.35;2.15;;;29.50;41.10;;;;;;608336;236;26611;-71
2022/05/19 11:37:30;;;;;;;4.25;2.75;;;29.80;41.30;;;;;;602308;235;26821;-74
2022/05/19 11:40:14;;;;;;;1.23;1.23;;;29.70;41.60;;;;;;604149;233;26569;-72
2022/05/19 11:42:49;;;;;;;1.50;1.40;;;29.70;41.60;;;;;;604843;235;26652;-72
2022/05/19 11:45:31;;;;;;;9.52;6.45;;;29.50;41.50;;;;;;602996;237;26817;-70
2022/05/19 11:55:45;;;;;;;1.45;1.42;;;29.50;41.50;;;;;;610413;235;26580;-72
2022/05/19 11:58:20;;;;;;;1.40;1.30;;;29.70;41.80;;;;;;604874;235;26582;-73
2022/05/19 12:00:55;;;;;;;11.75;6.68;;;29.60;41.80;;;;;;610163;235;26691;-74
2022/05/19 12:03:35;;;;;;;1.60;1.50;;;29.50;41.80;;;;;;603638;236;26607;-69
2022/05/19 12:06:03;;;;;;;2.90;2.37;;;29.50;41.50;;;;;;606967;236;26652;-68
2022/05/19 12:08:31;;;;;;;19.33;5.43;;;29.50;41.30;;;;;;609242;236;27108;-68
2022/05/19 12:11:11;;;;;;;205.70;39.45;;;29.40;41.10;;;;;;602402;236;26605;-69
2022/05/19 12:13:40;;;;;;;13.98;5.40;;;29.40;41.00;;;;;;603630;238;26862;-68
2022/05/19 12:16:07;;;;;;;3.72;2.20;;;29.60;41.30;;;;;;601501;239;26682;-69
2022/05/19 12:18:34;;;;;;;1.60;1.60;;;29.80;41.70;;;;;;605500;236;27232;-71
2022/05/19 12:21:16;;;;;;;48.08;14.40;;;29.90;41.10;;;;;;601319;239;26637;-69
2022/05/19 12:23:44;;;;;;;1.92;1.83;;;29.80;40.30;;;;;;600521;239;26701;-68
2022/05/19 12:26:28;;;;;;;4.78;3.03;;;29.70;40.30;;;;;;590381;243;26867;-67
2022/05/19 12:29:21;;;;;;;1.85;1.75;;;29.90;40.60;;;;;;579679;248;26692;-69
2022/05/19 12:34:23;;;;;;;1.67;1.58;;;30.70;40.60;;;;;;581493;245;26718;-68
2022/05/19 12:36:52;;;;;;;1.80;1.70;;;31.10;40.00;;;;;;594971;240;26667;-68
2022/05/19 12:39:28;;;;;;;1.85;1.75;;;31.40;39.60;;;;;;606504;235;26656;-68
2022/05/19 12:41:57;;;;;;;1.77;1.67;;;31.60;39.20;;;;;;611161;235;26862;-68
2022/05/19 12:44:46;;;;;;;2.03;1.83;;;31.90;38.90;;;;;;600576;237;26640;-68
2022/05/19 12:47:12;;;;;;;2.03;1.92;;;31.80;38.80;;;;;;604326;235;26635;-68
2022/05/19 12:49:39;;;;;;;1.60;1.60;;;32.00;37.70;;;;;;608138;235;26836;-68
2022/05/19 12:52:08;;;;;;;1.87;1.77;;;31.90;37.80;;;;;;605986;236;26606;-68
2022/05/19 12:54:36;;;;;;;11.70;5.80;;;32.60;37.20;;;;;;605893;234;26590;-68
2022/05/19 12:57:22;;;;;;;2.15;2.05;;;32.60;36.40;;;;;;605777;234;26867;-68
2022/05/19 12:59:49;;;;;;;2.50;2.30;;;33.00;36.50;;;;;;602814;237;26657;-68
2022/05/19 13:02:24;;;;;;;1.67;1.60;;;34.20;36.30;;;;;;604578;238;26658;-68
2022/05/19 13:04:52;;;;;;;1.87;1.62;;;34.20;36.20;;;;;;605310;238;26841;-68
2022/05/19 13:07:21;;;;;;;2.28;2.17;;;34.30;36.50;;;;;;604964;238;26856;-67
2022/05/19 13:09:51;;;;;;;2.00;1.90;;;34.50;34.60;;;;;;604824;238;26610;-67
2022/05/19 13:12:18;;;;;;;1.67;1.60;;;34.70;34.40;;;;;;604778;238;26817;-67
2022/05/19 13:14:47;;;;;;;1.98;1.87;;;34.60;33.80;;;;;;604964;237;26591;-67
2022/05/19 13:17:16;;;;;;;1.40;1.37;;;34.90;33.10;;;;;;604036;238;26593;-68
2022/05/19 13:19:43;;;;;;;2.50;2.30;;;34.90;33.00;;;;;;604082;238;26771;-67
2022/05/19 13:22:11;;;;;;;1.90;1.80;;;36.80;32.10;;;;;;604880;237;26581;-67
2022/05/19 13:24:39;;;;;;;2.40;2.17;;;37.10;31.50;;;;;;603548;238;26620;-67